Flight Track Log - Related Links

Times and Time Zones

All times are in EDT time to prevent confusion due to time zone crossing. See the QXE851A flight status page for this flight to view local times or setup timezone preferences in your user account.

Time Position Orientation Groundspeed Altitude Reporting Facility
EDT Latitude Longitude Course Direction KTS MPH feet Rate Location/Type
Wed 01:49:43 PM 45.5867 -122.6039 302° West 116 133 900  Level Seattle Center
Wed 01:50:44 PM 45.6069 -122.6511 302° West 160 184 3,700 2,675 Climbing Seattle Center
Wed 01:51:06 PM 45.6156 -122.6775 295° West 175 201 4,600 2,656 Climbing Seattle Center
Wed 01:51:45 PM 45.5986 -122.7286 245° Southwest 246 283 6,400 2,760 Climbing Seattle Center
Wed 01:52:46 PM 45.5297 -122.7411 187° South 269 310 9,200 2,833 Climbing Seattle Center
Wed 01:54:09 PM 45.4294 -122.7589 187° South 260 299 13,200 2,400 Climbing Seattle Center
Wed 01:55:11 PM 45.3456 -122.7747 188° South 281 323 15,000 878 Climbing Seattle Center
Wed 01:56:12 PM 45.2564 -122.7919 188° South 325 374 15,000  Level Seattle Center
Wed 01:57:13 PM 45.1694 -122.8192 192° South 322 371 15,000 -441 Level Seattle Center
Wed 02:00:17 PM 44.9158 -122.9233 199° South 319 367 13,200 -808 Descending Seattle Center
Wed 02:01:18 PM 44.8289 -122.9586 196° South 324 373 11,700 -1,475 Descending Seattle Center
Wed 02:03:20 PM 44.6694 -123.0131 194° South 299 344 8,700 -1,156 Descending Seattle Center
Wed 02:05:22 PM 44.5258 -123.0686 195° South 257 296 7,000 -750 Descending Seattle Center
Wed 02:06:24 PM 44.4558 -123.0825 188° South 257 296 6,400 -488 Descending Seattle Center
Wed 02:07:25 PM 44.3828 -123.0611 168° South 263 303 6,000 -261 Descending Seattle Center
Wed 02:09:28 PM 44.2267 -123.0267 171° South 264 304 5,600 -293 Descending Seattle Center
Wed 02:10:29 PM 44.1539 -123.0072 169° South 263 303 5,100 -246 Descending Seattle Center
Wed 02:11:30 PM 44.0817 -122.9844 167° South 262 302 5,100 -49 Level Seattle Center
Wed 02:12:32 PM 44.0094 -122.9808 178° South 256 295 5,000 -146 Descending Seattle Center
Wed 02:13:33 PM 43.9619 -123.0453 224° Southwest 237 273 4,800 -590 Descending Seattle Center
Wed 02:14:34 PM 43.9597 -123.1342 268° West 230 265 3,800 -984 Descending Seattle Center
Wed 02:16:36 PM 44.0433 -123.2172 339° North 182 209 1,800 -913 Descending Seattle Center
Wed 02:17:38 PM 44.0794 -123.2181 359° North 113 130 1,000 -634 Descending Seattle Center
Wed 02:18:39 PM 44.1089 -123.2186 359° North 102 117 500 -492 Descending Seattle Center
Wed 02:20:00 PM 44.1167 -123.2000 90° East  Level FlightAware Approximate
Wed 02:27:00 PM 44.1246 -123.2120 90° East  Level Estimated
Wed 02:28:00 PM 44.1246 -123.2120 90° East  Level Estimated
Wed 02:29:00 PM 44.1246 -123.2120 90° East  Level Estimated
Wed 02:30:00 PM 44.1246 -123.2120 90° East  Level Estimated
Wed 02:31:00 PM 44.1246 -123.2120 90° East  Level Estimated
Wed 02:32:00 PM 44.1246 -123.2120 90° East  Level Estimated

Login

Don't have an account? Register now (free) for customized features, flight alerts, and more!